Mechanicsville, Virginia
Current Conditions -  °F | °C
As of 5:54 AM on Thursday 23 Oct 2014 (Local Time) from KOFP Reporting Station
Broken Clouds Broken Clouds  
Wind Chill:   Ceiling: 4100
Heat Index:   Visibility: 10mi
Dew Point:   Wind: 7mph
Humidity: 83%   Direction: 290°WNW
Pressure: 29.94"   Gusts: NA
Location:  37.61°N, 77.38°W
Report Text: KOFP 230954Z AUTO 29006KT 10SM BKN041 08/06 A2994 RMK AO2 SLP140 T00830056
Loading
Personal Weather Stations






























Interactive Weather Map
Tropical Storm Tracking
New forecast layout! Learn more

10-Day Weather Forecast

Advertisements
Track Severe Weather on mobile